Time;durP1;ratioP1;P1;durP2;ratioP2;P2;SDS_P1;SDS_P2;PMS_P1;PMS_P2;Temp;Humidity;BMP_temperature;BMP_pressure;BME280_temperature;BME280_humidity;BME280_pressure;Samples;Min_cycle;Max_cycle;Signal;HPM_P1;HPM_P2
2021/10/20 00:01:35;;;;;;;16.48;9.73;;;16.10;99.90;;;;;;5012972;28;20388;-53
2021/10/20 00:04:02;;;;;;;13.32;9.13;;;16.10;99.90;;;;;;5013684;28;20030;-55
2021/10/20 00:06:28;;;;;;;14.75;9.65;;;16.10;99.90;;;;;;5012543;28;20046;-56
2021/10/20 00:08:53;;;;;;;14.80;9.73;;;16.10;99.90;;;;;;5012424;28;20052;-53
2021/10/20 00:11:19;;;;;;;14.88;9.52;;;16.10;99.90;;;;;;5013208;28;20071;-54
2021/10/20 00:13:46;;;;;;;13.13;9.15;;;16.10;99.90;;;;;;5011056;28;20030;-55
2021/10/20 00:16:12;;;;;;;14.90;9.40;;;16.10;99.90;;;;;;5007921;28;20030;-56
2021/10/20 00:18:38;;;;;;;12.18;9.02;;;16.10;99.90;;;;;;5010813;28;20037;-53
2021/10/20 00:21:05;;;;;;;13.77;8.95;;;16.10;99.90;;;;;;5008199;28;20594;-55
2021/10/20 00:23:31;;;;;;;14.90;9.50;;;16.00;99.90;;;;;;5012147;28;20148;-56
2021/10/20 00:25:57;;;;;;;12.55;8.40;;;16.00;99.90;;;;;;5007423;28;20133;-52
2021/10/20 00:28:22;;;;;;;11.77;8.27;;;16.00;99.90;;;;;;5007706;28;20571;-54
2021/10/20 00:30:48;;;;;;;13.68;9.15;;;16.00;99.90;;;;;;5012374;28;20038;-52
2021/10/20 00:33:14;;;;;;;10.73;8.40;;;16.00;99.90;;;;;;5002802;28;20485;-54
2021/10/20 00:35:39;;;;;;;13.70;9.30;;;16.00;99.90;;;;;;5012671;28;20034;-55
2021/10/20 00:38:05;;;;;;;11.20;8.35;;;15.90;99.90;;;;;;5011856;28;20045;-55
2021/10/20 00:40:31;;;;;;;11.85;8.77;;;15.90;99.90;;;;;;5012538;28;20038;-56
2021/10/20 00:42:57;;;;;;;9.80;8.00;;;15.90;99.90;;;;;;5012237;28;20394;-53
2021/10/20 00:45:22;;;;;;;12.48;8.30;;;15.90;99.90;;;;;;5012519;28;20034;-55
2021/10/20 00:47:48;;;;;;;13.52;8.75;;;15.90;99.90;;;;;;5011953;28;20077;-55
2021/10/20 00:50:14;;;;;;;14.20;8.50;;;15.90;99.90;;;;;;5012703;28;20034;-55
2021/10/20 00:52:41;;;;;;;13.75;8.40;;;15.80;99.90;;;;;;5012461;28;20081;-54
2021/10/20 00:55:08;;;;;;;11.43;8.18;;;15.80;99.90;;;;;;5006648;28;20026;-53
2021/10/20 00:57:34;;;;;;;12.57;8.20;;;15.80;99.90;;;;;;5010966;28;20116;-56
2021/10/20 01:00:03;;;;;;;11.35;8.55;;;15.80;99.90;;;;;;4978047;28;20042;-54
2021/10/20 01:02:29;;;;;;;11.10;8.45;;;15.80;99.90;;;;;;5005913;28;20049;-56
2021/10/20 01:04:54;;;;;;;9.90;7.65;;;15.80;99.90;;;;;;5012300;28;20038;-52
2021/10/20 01:07:22;;;;;;;10.43;8.43;;;15.80;99.90;;;;;;5010757;28;20041;-55
2021/10/20 01:09:48;;;;;;;12.88;8.27;;;15.80;99.90;;;;;;5012019;28;20046;-56
2021/10/20 01:12:17;;;;;;;10.85;8.35;;;15.70;99.90;;;;;;5011779;28;20041;-55
2021/10/20 01:14:43;;;;;;;9.35;7.40;;;15.70;99.90;;;;;;5012215;28;20038;-55
2021/10/20 01:17:08;;;;;;;11.77;8.00;;;15.70;99.90;;;;;;5011955;28;20048;-55
2021/10/20 01:19:36;;;;;;;13.15;7.97;;;15.80;99.90;;;;;;5011901;28;20042;-55
2021/10/20 01:22:02;;;;;;;10.45;7.57;;;15.70;99.90;;;;;;5011123;28;20033;-54
2021/10/20 01:24:28;;;;;;;11.18;7.88;;;15.70;99.90;;;;;;5011737;28;20514;-55
2021/10/20 01:26:55;;;;;;;11.45;7.60;;;15.70;99.90;;;;;;5011340;28;20045;-53
2021/10/20 01:29:21;;;;;;;12.35;7.65;;;15.60;99.90;;;;;;5011415;28;20084;-55
2021/10/20 01:31:58;;;;;;;13.52;8.15;;;15.60;99.90;;;;;;5011741;28;20498;-55
2021/10/20 01:34:25;;;;;;;12.77;7.60;;;15.60;99.90;;;;;;5011463;28;20515;-54
2021/10/20 01:36:52;;;;;;;12.23;8.00;;;15.60;99.90;;;;;;5011165;28;20482;-55
2021/10/20 01:39:19;;;;;;;10.55;7.97;;;15.50;99.90;;;;;;5010990;28;20491;-54
2021/10/20 01:41:45;;;;;;;9.95;7.00;;;15.60;99.90;;;;;;5011141;28;20046;-55
2021/10/20 01:44:11;;;;;;;11.63;7.30;;;15.50;99.90;;;;;;5011747;28;20116;-54
2021/10/20 01:46:36;;;;;;;13.05;7.65;;;15.40;99.90;;;;;;4993417;28;20129;-55
2021/10/20 01:49:02;;;;;;;9.77;6.85;;;15.50;99.90;;;;;;5008639;28;20064;-53
2021/10/20 01:51:28;;;;;;;8.93;6.68;;;15.50;99.90;;;;;;5011726;28;20439;-55
2021/10/20 01:53:54;;;;;;;10.52;7.20;;;15.50;99.90;;;;;;5008223;28;20411;-55
2021/10/20 01:56:20;;;;;;;12.13;7.70;;;15.40;99.90;;;;;;5006174;28;20061;-55
2021/10/20 01:58:46;;;;;;;9.85;7.30;;;15.40;99.90;;;;;;4988169;28;20141;-56
2021/10/20 02:01:12;;;;;;;12.27;7.63;;;15.40;99.90;;;;;;5007344;28;20578;-55
2021/10/20 02:03:39;;;;;;;11.68;7.10;;;15.40;99.90;;;;;;5003239;28;20531;-55
2021/10/20 02:06:08;;;;;;;9.95;7.40;;;15.40;99.90;;;;;;5011465;28;20137;-54
2021/10/20 02:08:34;;;;;;;12.60;7.63;;;15.30;99.90;;;;;;5007738;28;20456;-54
2021/10/20 02:10:59;;;;;;;12.13;7.22;;;15.30;99.90;;;;;;5011331;28;20038;-56
2021/10/20 02:13:25;;;;;;;12.50;7.22;;;15.30;99.90;;;;;;5011022;28;20042;-54
2021/10/20 02:15:51;;;;;;;12.38;7.70;;;15.30;99.90;;;;;;4993571;28;20073;-55
2021/10/20 02:18:17;;;;;;;10.27;6.90;;;15.20;99.90;;;;;;5010380;28;20076;-55
2021/10/20 02:20:43;;;;;;;11.73;7.70;;;15.20;99.90;;;;;;5010763;28;20045;-54
2021/10/20 02:23:08;;;;;;;15.73;8.07;;;15.20;99.90;;;;;;5010457;28;20050;-53
2021/10/20 02:25:34;;;;;;;14.35;7.78;;;15.20;99.90;;;;;;5011029;28;20045;-55
2021/10/20 02:28:00;;;;;;;11.32;7.60;;;15.20;99.90;;;;;;5006606;28;20502;-55
2021/10/20 02:30:25;;;;;;;12.98;8.10;;;15.20;99.90;;;;;;5008496;28;20135;-55
2021/10/20 02:32:52;;;;;;;12.13;8.00;;;15.10;99.90;;;;;;5005499;28;20081;-55
2021/10/20 02:35:18;;;;;;;11.15;8.18;;;15.10;99.90;;;;;;5011203;28;20394;-53
2021/10/20 02:37:45;;;;;;;13.05;8.20;;;15.10;99.90;;;;;;5006071;28;20035;-52
2021/10/20 02:40:12;;;;;;;10.23;7.35;;;15.00;99.90;;;;;;5011134;28;20120;-55
2021/10/20 02:42:39;;;;;;;10.43;7.55;;;15.10;99.90;;;;;;5010385;28;20038;-53
2021/10/20 02:45:06;;;;;;;16.83;8.10;;;15.10;99.90;;;;;;5011177;28;20042;-54
2021/10/20 02:47:32;;;;;;;14.07;8.07;;;15.00;99.90;;;;;;5010359;28;20045;-56
2021/10/20 02:49:57;;;;;;;12.27;8.35;;;15.10;99.90;;;;;;5010608;28;20030;-55
2021/10/20 02:52:23;;;;;;;10.85;7.88;;;15.00;99.90;;;;;;5010757;28;20458;-56
2021/10/20 02:54:48;;;;;;;14.60;8.82;;;15.00;99.90;;;;;;5008102;28;20033;-52
2021/10/20 02:57:14;;;;;;;11.38;7.97;;;15.00;99.90;;;;;;5010611;28;20046;-55
2021/10/20 02:59:39;;;;;;;10.75;8.32;;;15.00;99.90;;;;;;5009919;28;20080;-55
2021/10/20 03:02:05;;;;;;;12.68;8.15;;;15.00;99.90;;;;;;5010320;28;20046;-55
2021/10/20 03:04:31;;;;;;;12.60;8.95;;;14.90;99.90;;;;;;5010996;28;20073;-52
2021/10/20 03:06:56;;;;;;;12.57;8.65;;;14.90;99.90;;;;;;5011410;28;20041;-55
2021/10/20 03:09:21;;;;;;;15.23;9.45;;;15.00;99.90;;;;;;5013377;28;20046;-54
2021/10/20 03:11:47;;;;;;;13.85;8.65;;;15.00;99.90;;;;;;5014198;28;20384;-55
2021/10/20 03:14:14;;;;;;;15.85;9.55;;;14.90;99.90;;;;;;5014574;28;20034;-55
2021/10/20 03:16:40;;;;;;;13.07;9.15;;;14.90;99.90;;;;;;5013543;28;20399;-54
2021/10/20 03:19:06;;;;;;;12.85;9.52;;;15.00;99.90;;;;;;5014033;28;20052;-54
2021/10/20 03:21:31;;;;;;;13.82;9.25;;;15.00;99.90;;;;;;5014200;28;20034;-55
2021/10/20 03:23:57;;;;;;;16.67;9.85;;;15.00;99.90;;;;;;5014184;28;20033;-52
2021/10/20 03:26:22;;;;;;;16.75;9.48;;;15.00;99.90;;;;;;5013732;28;20517;-53
2021/10/20 03:28:48;;;;;;;15.95;10.15;;;15.10;99.90;;;;;;5010511;28;20045;-55
2021/10/20 03:31:14;;;;;;;19.58;10.65;;;15.10;99.90;;;;;;4994596;28;20116;-53
2021/10/20 03:33:39;;;;;;;15.35;10.15;;;15.10;99.90;;;;;;5014289;28;20045;-55
2021/10/20 03:36:08;;;;;;;16.85;10.23;;;15.10;99.70;;;;;;5012754;28;20038;-56
2021/10/20 03:38:34;;;;;;;15.82;10.13;;;15.20;99.50;;;;;;5012142;28;20037;-55
2021/10/20 03:40:59;;;;;;;16.50;10.88;;;15.30;99.20;;;;;;5013762;28;20044;-53
2021/10/20 03:43:25;;;;;;;17.13;10.73;;;15.30;99.20;;;;;;5013144;28;20044;-55
2021/10/20 03:45:50;;;;;;;15.52;11.02;;;15.40;98.90;;;;;;5010799;28;20081;-56
2021/10/20 03:48:16;;;;;;;17.52;11.43;;;15.40;98.60;;;;;;5012868;28;20486;-56
2021/10/20 03:50:41;;;;;;;19.02;11.75;;;15.50;98.30;;;;;;5011696;28;20038;-54
2021/10/20 03:53:07;;;;;;;18.02;10.65;;;15.50;98.10;;;;;;5013493;28;20040;-55
2021/10/20 03:55:33;;;;;;;15.50;10.63;;;15.50;97.90;;;;;;5013764;28;20042;-54
2021/10/20 03:58:00;;;;;;;14.68;10.27;;;15.60;97.60;;;;;;5007472;28;20570;-55
2021/10/20 04:00:26;;;;;;;14.07;10.48;;;15.60;97.50;;;;;;5009445;28;20460;-53
2021/10/20 04:02:52;;;;;;;18.80;10.68;;;15.60;97.60;;;;;;5012362;28;20448;-55
2021/10/20 04:05:19;;;;;;;23.88;10.38;;;15.60;97.60;;;;;;5013226;28;20033;-54
2021/10/20 04:07:45;;;;;;;15.00;9.75;;;15.60;97.40;;;;;;5013307;28;20414;-55
2021/10/20 04:10:16;;;;;;;13.02;10.27;;;15.60;97.20;;;;;;5012753;28;20253;-55
2021/10/20 04:12:42;;;;;;;18.65;10.35;;;15.60;97.20;;;;;;5013358;28;20121;-55
2021/10/20 04:15:09;;;;;;;13.82;9.77;;;15.60;97.30;;;;;;5012766;28;20506;-55
2021/10/20 04:17:35;;;;;;;15.20;9.70;;;15.60;97.30;;;;;;5012171;28;20037;-55
2021/10/20 04:20:00;;;;;;;15.38;10.18;;;15.60;97.20;;;;;;5012936;28;20410;-52
2021/10/20 04:22:26;;;;;;;14.90;10.10;;;15.60;97.00;;;;;;5013147;28;20383;-55
2021/10/20 04:24:52;;;;;;;15.35;10.23;;;15.60;96.90;;;;;;5012649;28;20036;-54
2021/10/20 04:27:17;;;;;;;16.30;10.07;;;15.70;96.90;;;;;;5012310;28;20030;-56
2021/10/20 04:29:43;;;;;;;15.82;10.43;;;15.60;96.90;;;;;;5012713;28;20038;-55
2021/10/20 04:32:09;;;;;;;20.88;10.85;;;15.60;96.90;;;;;;5012109;28;20045;-55
2021/10/20 04:34:34;;;;;;;16.50;9.45;;;15.70;96.80;;;;;;5012694;28;20129;-55
2021/10/20 04:37:00;;;;;;;17.02;10.07;;;15.70;96.90;;;;;;5011828;28;20504;-56
2021/10/20 04:39:25;;;;;;;15.18;10.52;;;15.60;96.90;;;;;;5012374;28;20040;-55
2021/10/20 04:41:51;;;;;;;15.80;9.73;;;15.60;96.80;;;;;;5012504;28;20041;-56
2021/10/20 04:44:16;;;;;;;17.27;10.15;;;15.60;96.80;;;;;;5012329;28;20042;-55
2021/10/20 04:46:42;;;;;;;15.45;9.80;;;15.60;96.90;;;;;;5012069;28;20042;-55
2021/10/20 04:49:07;;;;;;;16.48;10.43;;;15.60;96.60;;;;;;5012096;28;20045;-55
2021/10/20 04:56:27;;;;;;;18.00;10.98;;;15.70;96.60;;;;;;5038400;28;20065;-52
2021/10/20 04:59:14;;;;;;;15.15;10.98;;;15.60;96.60;;;;;;5009454;28;20154;-53
2021/10/20 05:01:40;;;;;;;18.10;10.98;;;15.60;96.70;;;;;;5011803;28;20443;-54
2021/10/20 05:04:05;;;;;;;16.10;11.18;;;15.60;96.40;;;;;;5012566;28;20406;-53
2021/10/20 05:06:31;;;;;;;16.77;11.30;;;15.60;96.60;;;;;;5011440;28;20065;-54
2021/10/20 05:08:56;;;;;;;16.30;12.02;;;15.60;96.50;;;;;;5011788;28;20065;-52
2021/10/20 05:11:22;;;;;;;17.83;11.63;;;15.60;96.50;;;;;;5012627;28;20049;-52
2021/10/20 05:13:47;;;;;;;17.23;11.75;;;15.60;96.40;;;;;;5011788;28;20570;-53
2021/10/20 05:16:13;;;;;;;17.60;12.05;;;15.60;96.30;;;;;;5010591;28;20034;-53
2021/10/20 05:18:38;;;;;;;18.85;11.77;;;15.60;96.30;;;;;;5011166;28;20100;-52
2021/10/20 05:21:04;;;;;;;18.08;12.35;;;15.60;96.20;;;;;;5012321;28;20453;-51
2021/10/20 05:23:30;;;;;;;18.38;12.50;;;15.60;96.10;;;;;;5011403;28;20042;-52
2021/10/20 05:25:55;;;;;;;20.95;12.48;;;15.60;96.10;;;;;;5011557;28;20030;-54
2021/10/20 05:28:21;;;;;;;20.25;12.60;;;15.60;96.10;;;;;;5011378;28;20137;-54
2021/10/20 05:30:46;;;;;;;18.73;12.15;;;15.60;96.00;;;;;;5010163;28;20411;-53
2021/10/20 05:33:12;;;;;;;18.38;12.48;;;15.70;95.90;;;;;;5011431;28;20415;-54
2021/10/20 05:35:38;;;;;;;17.30;12.88;;;15.80;95.00;;;;;;5011424;28;20091;-53
2021/10/20 05:38:03;;;;;;;17.83;13.40;;;15.90;95.00;;;;;;5010982;28;20033;-51
2021/10/20 05:40:29;;;;;;;19.27;12.45;;;15.90;94.80;;;;;;5010884;28;20038;-51
2021/10/20 05:42:54;;;;;;;19.42;12.70;;;16.00;94.90;;;;;;5011383;28;20065;-51
2021/10/20 05:45:20;;;;;;;17.85;12.48;;;16.00;94.80;;;;;;5011029;28;20428;-52
2021/10/20 05:47:46;;;;;;;17.50;11.80;;;16.10;95.10;;;;;;5002011;28;20037;-53
2021/10/20 05:50:13;;;;;;;18.05;11.77;;;16.10;94.50;;;;;;5011093;28;20513;-50
2021/10/20 05:52:38;;;;;;;16.83;12.38;;;16.20;94.70;;;;;;4992952;28;20120;-51
2021/10/20 05:55:04;;;;;;;18.52;11.85;;;16.30;94.40;;;;;;5010960;28;20121;-52
2021/10/20 05:57:30;;;;;;;18.65;12.45;;;16.30;94.60;;;;;;5009364;28;20037;-52
2021/10/20 05:59:55;;;;;;;14.52;11.07;;;16.30;94.50;;;;;;5009918;28;20041;-51
2021/10/20 06:02:21;;;;;;;16.85;11.95;;;16.40;94.50;;;;;;5011517;28;20049;-51
2021/10/20 06:04:46;;;;;;;20.77;11.52;;;16.40;94.30;;;;;;4991215;28;20562;-54
2021/10/20 06:07:12;;;;;;;16.20;11.32;;;16.40;94.30;;;;;;5009765;28;20041;-54
2021/10/20 06:09:37;;;;;;;17.55;11.93;;;16.40;94.30;;;;;;5001641;28;20038;-53
2021/10/20 06:12:04;;;;;;;18.42;11.82;;;16.40;94.40;;;;;;5008406;28;20026;-50
2021/10/20 06:14:31;;;;;;;21.90;11.85;;;16.40;94.30;;;;;;5009836;28;21563;-50
2021/10/20 06:16:57;;;;;;;17.92;11.63;;;16.40;94.60;;;;;;5009409;28;20506;-52
2021/10/20 06:19:23;;;;;;;19.40;12.65;;;16.40;94.30;;;;;;5011480;28;20478;-53
2021/10/20 06:21:49;;;;;;;16.83;10.50;;;16.40;94.60;;;;;;5007011;28;20070;-54
2021/10/20 06:24:14;;;;;;;17.50;11.40;;;16.40;94.60;;;;;;5005493;28;20065;-52
2021/10/20 06:26:40;;;;;;;18.45;11.18;;;16.40;94.80;;;;;;5006753;28;20034;-52
2021/10/20 06:29:06;;;;;;;21.48;11.02;;;16.40;94.80;;;;;;5009642;28;20042;-54
2021/10/20 06:31:32;;;;;;;16.75;11.35;;;16.40;94.90;;;;;;5010700;28;20041;-53
2021/10/20 06:33:57;;;;;;;16.35;10.95;;;16.40;94.90;;;;;;5007850;28;20171;-53
2021/10/20 06:36:29;;;;;;;13.48;10.27;;;16.40;95.00;;;;;;5007644;28;20047;-55
2021/10/20 06:38:55;;;;;;;17.95;10.73;;;16.30;95.10;;;;;;5009832;28;20091;-55
2021/10/20 06:41:20;;;;;;;17.13;11.35;;;16.30;95.20;;;;;;5011462;28;20111;-54
2021/10/20 06:43:46;;;;;;;16.55;11.18;;;16.30;95.30;;;;;;5011808;28;20486;-53
2021/10/20 06:46:12;;;;;;;15.07;10.75;;;16.30;95.50;;;;;;5012642;28;20506;-54
2021/10/20 06:48:38;;;;;;;15.40;10.13;;;16.30;95.60;;;;;;5014194;28;20091;-54
2021/10/20 06:51:05;;;;;;;15.15;10.23;;;16.20;95.60;;;;;;5013983;28;20037;-54
2021/10/20 06:53:30;;;;;;;14.15;10.23;;;16.20;95.70;;;;;;5014912;28;20057;-54
2021/10/20 06:55:56;;;;;;;14.50;10.48;;;16.20;95.70;;;;;;5012743;28;20034;-53
2021/10/20 06:58:21;;;;;;;16.83;10.40;;;16.20;95.70;;;;;;5010086;28;20513;-51
2021/10/20 07:00:47;;;;;;;14.32;10.55;;;16.20;95.80;;;;;;5004447;28;20097;-54
2021/10/20 07:03:13;;;;;;;15.80;10.05;;;16.10;95.80;;;;;;4997236;28;20092;-54
2021/10/20 07:05:39;;;;;;;15.45;10.35;;;16.10;95.90;;;;;;5000139;28;20038;-55
2021/10/20 07:08:04;;;;;;;18.23;9.70;;;16.20;95.80;;;;;;5013547;28;20463;-54
2021/10/20 07:10:30;;;;;;;14.07;9.57;;;16.10;95.90;;;;;;5013008;28;20065;-52
2021/10/20 07:12:55;;;;;;;13.88;9.85;;;16.10;95.90;;;;;;5010127;28;20088;-55
2021/10/20 07:15:21;;;;;;;16.45;9.93;;;16.20;95.80;;;;;;5009227;28;20045;-55
2021/10/20 07:17:47;;;;;;;15.27;10.68;;;16.20;96.00;;;;;;5010423;28;20490;-54
2021/10/20 07:20:13;;;;;;;14.65;9.43;;;16.20;96.00;;;;;;5010750;28;20121;-54
2021/10/20 07:22:39;;;;;;;13.40;9.48;;;16.20;96.10;;;;;;5014018;28;20121;-55
2021/10/20 07:25:08;;;;;;;15.02;9.55;;;16.30;96.20;;;;;;5013035;28;20454;-52
2021/10/20 07:27:34;;;;;;;14.13;9.52;;;16.30;96.20;;;;;;5014027;28;20068;-55
2021/10/20 07:30:01;;;;;;;15.25;9.27;;;16.30;96.10;;;;;;5013552;28;20088;-55
2021/10/20 07:32:26;;;;;;;14.30;9.32;;;16.30;96.10;;;;;;5012756;28;20580;-54
2021/10/20 07:34:52;;;;;;;14.82;9.32;;;16.30;96.20;;;;;;5013271;28;20042;-54
2021/10/20 07:37:17;;;;;;;13.98;9.55;;;16.30;96.10;;;;;;5007822;28;20095;-55
2021/10/20 07:39:43;;;;;;;13.55;9.25;;;16.30;96.20;;;;;;5013109;28;20045;-54
2021/10/20 07:42:09;;;;;;;13.00;8.35;;;16.30;96.20;;;;;;5011937;28;20029;-55
2021/10/20 07:44:34;;;;;;;13.40;8.73;;;16.30;96.20;;;;;;5013033;28;20037;-55
2021/10/20 07:47:00;;;;;;;12.13;8.10;;;16.30;96.20;;;;;;5010768;28;20041;-52
2021/10/20 07:49:25;;;;;;;13.43;8.40;;;16.40;96.30;;;;;;5012903;28;20050;-55
2021/10/20 07:51:56;;;;;;;12.60;8.15;;;16.40;96.00;;;;;;5013063;28;20034;-55
2021/10/20 07:54:25;;;;;;;12.63;8.57;;;16.40;96.10;;;;;;5010781;28;20100;-55
2021/10/20 07:56:52;;;;;;;13.32;8.55;;;16.40;96.00;;;;;;5010791;28;20045;-52
2021/10/20 07:59:18;;;;;;;11.25;7.30;;;16.40;96.00;;;;;;5006074;28;20065;-51
2021/10/20 08:01:44;;;;;;;12.88;8.07;;;16.50;96.00;;;;;;5005103;28;20387;-56
2021/10/20 08:04:09;;;;;;;13.07;7.93;;;16.40;96.20;;;;;;5012629;28;20052;-54
2021/10/20 08:06:35;;;;;;;13.25;7.97;;;16.40;96.50;;;;;;5012961;28;20053;-56
2021/10/20 08:09:00;;;;;;;11.40;8.20;;;16.30;96.70;;;;;;5013652;28;20490;-55
2021/10/20 08:11:30;;;;;;;12.88;7.82;;;16.30;96.90;;;;;;5014279;28;20150;-56
2021/10/20 08:13:56;;;;;;;12.80;8.02;;;16.30;97.00;;;;;;5017176;28;20034;-54
2021/10/20 08:16:22;;;;;;;15.63;7.82;;;16.40;97.10;;;;;;5011346;28;20048;-55
2021/10/20 08:18:48;;;;;;;10.55;7.28;;;16.30;97.00;;;;;;5013782;28;20517;-56
2021/10/20 08:21:13;;;;;;;10.80;7.68;;;16.30;97.20;;;;;;5012750;28;20049;-55
2021/10/20 08:23:41;;;;;;;11.35;7.95;;;16.30;97.40;;;;;;5012352;28;20514;-53
2021/10/20 08:26:08;;;;;;;11.23;7.95;;;16.30;97.50;;;;;;5013079;28;20038;-53
2021/10/20 08:28:34;;;;;;;10.70;7.70;;;16.20;97.60;;;;;;5012531;28;20422;-55
2021/10/20 08:30:59;;;;;;;10.32;7.10;;;16.20;97.60;;;;;;5012194;28;20130;-53
2021/10/20 08:33:25;;;;;;;12.60;7.93;;;16.30;97.50;;;;;;5012557;28;20034;-54
2021/10/20 08:35:51;;;;;;;10.90;7.30;;;16.20;97.50;;;;;;5010668;28;20391;-53
2021/10/20 08:38:17;;;;;;;14.88;8.00;;;16.20;97.80;;;;;;5012329;28;20119;-55
2021/10/20 08:40:46;;;;;;;12.63;7.88;;;16.20;97.60;;;;;;5012258;28;20570;-53
2021/10/20 08:43:19;;;;;;;15.40;7.60;;;16.10;98.00;;;;;;5005622;28;20053;-53
2021/10/20 08:45:46;;;;;;;11.93;8.52;;;16.10;98.20;;;;;;5010176;28;20443;-53
2021/10/20 08:48:21;;;;;;;10.52;7.78;;;16.10;98.20;;;;;;5012430;28;20387;-53
2021/10/20 08:51:05;;;;;;;13.18;8.00;;;16.10;98.40;;;;;;5010464;28;20045;-53
2021/10/20 08:53:30;;;;;;;10.55;8.00;;;16.10;98.50;;;;;;5008695;28;20129;-53
2021/10/20 08:55:56;;;;;;;12.27;8.05;;;16.10;98.60;;;;;;5012260;28;20113;-56
2021/10/20 08:58:22;;;;;;;10.43;7.63;;;16.10;98.80;;;;;;5010475;28;20128;-55
2021/10/20 09:00:48;;;;;;;11.18;8.43;;;16.10;98.80;;;;;;5010445;28;20038;-53
2021/10/20 09:03:16;;;;;;;11.90;7.30;;;16.10;98.90;;;;;;5006850;28;20057;-55
2021/10/20 09:05:42;;;;;;;12.45;7.75;;;16.20;99.00;;;;;;5011187;28;20100;-53
2021/10/20 09:08:08;;;;;;;11.68;8.52;;;16.20;99.10;;;;;;5010671;28;20073;-53
2021/10/20 09:10:34;;;;;;;11.32;7.82;;;16.20;99.10;;;;;;5012292;28;20576;-55
2021/10/20 09:13:01;;;;;;;12.35;8.18;;;16.20;99.10;;;;;;5011452;28;20509;-55
2021/10/20 09:15:32;;;;;;;10.98;7.68;;;16.20;99.10;;;;;;4992789;28;20049;-55
2021/10/20 09:17:59;;;;;;;10.52;7.30;;;16.20;99.10;;;;;;5011458;28;20033;-53
2021/10/20 09:20:29;;;;;;;10.20;7.45;;;16.30;99.10;;;;;;5010156;28;20049;-56
2021/10/20 09:22:58;;;;;;;12.82;7.75;;;16.20;99.20;;;;;;5011917;28;20076;-54
2021/10/20 09:25:25;;;;;;;12.02;8.25;;;16.20;99.10;;;;;;5010301;28;20050;-56
2021/10/20 09:27:52;;;;;;;12.23;7.82;;;16.20;99.30;;;;;;5011166;28;20034;-53
2021/10/20 09:30:18;;;;;;;13.70;8.35;;;16.20;99.40;;;;;;5009674;28;20503;-50
2021/10/20 09:32:44;;;;;;;11.65;7.63;;;16.10;99.70;;;;;;5011350;28;20426;-52
2021/10/20 09:35:11;;;;;;;11.23;8.15;;;16.20;99.50;;;;;;5009765;28;20044;-50
2021/10/20 09:37:39;;;;;;;14.23;8.55;;;16.10;99.50;;;;;;5008629;28;20037;-55
2021/10/20 09:40:10;;;;;;;10.32;8.10;;;16.10;99.60;;;;;;5011018;28;20038;-55
2021/10/20 09:42:47;;;;;;;12.68;9.00;;;16.20;99.70;;;;;;5011611;28;20125;-52
2021/10/20 09:45:14;;;;;;;11.27;7.90;;;16.20;99.80;;;;;;5012041;28;20217;-53
2021/10/20 09:47:40;;;;;;;12.20;8.32;;;16.20;99.90;;;;;;5009311;28;20041;-53
2021/10/20 09:50:06;;;;;;;11.30;8.73;;;16.20;99.90;;;;;;5010726;28;20046;-53
2021/10/20 09:52:44;;;;;;;13.32;8.80;;;16.30;99.90;;;;;;5011523;28;20077;-53
2021/10/20 09:55:13;;;;;;;14.15;8.68;;;16.30;99.90;;;;;;5010578;28;20061;-53
2021/10/20 09:57:39;;;;;;;13.30;8.20;;;16.30;99.90;;;;;;5010181;28;20042;-53
2021/10/20 10:00:06;;;;;;;11.13;8.05;;;16.30;99.90;;;;;;5011283;28;20052;-54
2021/10/20 10:02:32;;;;;;;13.20;8.82;;;16.30;99.90;;;;;;5008688;28;20093;-54
2021/10/20 10:04:57;;;;;;;12.75;9.02;;;16.40;99.90;;;;;;5008649;28;20072;-54
2021/10/20 10:07:23;;;;;;;10.95;8.65;;;16.40;99.90;;;;;;4994948;28;20041;-53
2021/10/20 10:09:48;;;;;;;12.35;8.68;;;16.50;99.90;;;;;;5011036;28;20053;-52
2021/10/20 10:12:20;;;;;;;13.30;8.35;;;16.60;99.90;;;;;;5010005;28;20514;-54
2021/10/20 10:14:55;;;;;;;15.25;8.73;;;16.60;99.70;;;;;;5009524;28;20087;-53
2021/10/20 10:17:22;;;;;;;10.68;7.90;;;16.70;99.70;;;;;;5005084;28;20053;-53
2021/10/20 10:19:48;;;;;;;10.95;8.40;;;16.80;99.60;;;;;;5011262;28;20117;-55
2021/10/20 10:22:21;;;;;;;12.18;8.27;;;16.80;99.40;;;;;;5010751;28;20042;-54
2021/10/20 10:24:47;;;;;;;11.18;8.68;;;16.80;99.50;;;;;;5010225;28;20394;-53
2021/10/20 10:27:13;;;;;;;11.68;8.85;;;16.70;99.30;;;;;;5005390;28;20030;-53
2021/10/20 10:29:59;;;;;;;12.02;8.40;;;16.70;99.30;;;;;;5010727;28;20120;-54
2021/10/20 10:32:27;;;;;;;11.38;8.38;;;16.80;99.40;;;;;;5005924;28;20046;-53
2021/10/20 10:34:53;;;;;;;11.82;8.63;;;16.70;99.30;;;;;;5008304;28;20035;-53
2021/10/20 10:37:27;;;;;;;13.10;8.68;;;16.70;99.30;;;;;;5007156;28;20034;-53
2021/10/20 10:39:54;;;;;;;10.38;8.30;;;16.70;99.00;;;;;;4993931;28;20096;-54
2021/10/20 10:42:31;;;;;;;11.32;8.10;;;16.80;99.00;;;;;;5008071;28;20109;-54
2021/10/20 10:45:09;;;;;;;10.43;8.55;;;16.80;99.00;;;;;;5011133;28;20034;-54
2021/10/20 10:47:35;;;;;;;11.43;8.25;;;16.80;99.10;;;;;;5008675;28;20037;-54
2021/10/20 10:50:10;;;;;;;11.50;8.88;;;16.80;99.00;;;;;;5010919;28;20438;-55
2021/10/20 10:52:39;;;;;;;13.13;9.15;;;16.80;99.00;;;;;;5023149;28;20406;-53
2021/10/20 10:55:22;;;;;;;12.15;9.10;;;16.80;99.10;;;;;;5006621;28;20073;-54
2021/10/20 10:57:56;;;;;;;13.32;9.38;;;16.80;99.00;;;;;;5003795;28;20038;-53
2021/10/20 11:00:22;;;;;;;12.88;9.50;;;16.80;99.00;;;;;;5010849;28;20037;-53
2021/10/20 11:02:51;;;;;;;12.85;9.05;;;16.80;98.90;;;;;;5010119;28;20037;-53
2021/10/20 11:05:25;;;;;;;12.07;9.48;;;16.80;98.80;;;;;;5010162;28;20164;-53
2021/10/20 11:07:53;;;;;;;12.02;9.10;;;16.80;98.90;;;;;;5010499;28;20434;-50
2021/10/20 11:10:20;;;;;;;11.93;8.90;;;16.80;99.10;;;;;;5010821;28;20038;-50
2021/10/20 11:12:47;;;;;;;9.63;8.52;;;16.80;99.00;;;;;;5010837;28;20060;-54
2021/10/20 11:15:13;;;;;;;10.88;8.65;;;16.80;99.00;;;;;;5009951;28;20509;-53
2021/10/20 11:17:39;;;;;;;11.90;8.07;;;16.80;99.00;;;;;;5010346;28;20462;-53
2021/10/20 11:20:14;;;;;;;11.32;8.30;;;16.80;98.90;;;;;;5007138;28;20058;-53
2021/10/20 11:22:43;;;;;;;10.45;7.85;;;16.90;99.00;;;;;;5010171;28;20041;-56
2021/10/20 11:25:11;;;;;;;11.57;8.07;;;16.90;98.90;;;;;;5010195;28;20129;-53
2021/10/20 11:27:38;;;;;;;10.90;7.28;;;16.90;98.80;;;;;;4992736;28;20046;-53
2021/10/20 11:30:05;;;;;;;10.32;8.15;;;16.90;98.80;;;;;;5011603;28;20046;-55
2021/10/20 11:32:30;;;;;;;10.40;7.20;;;17.00;98.80;;;;;;5013377;28;20483;-53
2021/10/20 11:34:56;;;;;;;11.35;7.32;;;17.10;98.40;;;;;;5012052;28;20034;-54
2021/10/20 11:37:24;;;;;;;12.32;6.60;;;17.10;98.30;;;;;;5012702;28;20041;-51
2021/10/20 11:40:01;;;;;;;10.85;7.60;;;17.10;98.20;;;;;;5013903;28;20049;-53
2021/10/20 11:42:27;;;;;;;9.15;7.05;;;17.20;98.20;;;;;;5013113;28;20048;-54
2021/10/20 11:44:53;;;;;;;8.32;6.53;;;17.20;98.00;;;;;;5012500;28;20504;-54
2021/10/20 11:47:20;;;;;;;11.13;7.05;;;17.20;97.80;;;;;;5013133;28;20037;-53
2021/10/20 11:49:51;;;;;;;10.80;6.78;;;17.20;97.80;;;;;;5013975;28;20042;-55
2021/10/20 11:52:20;;;;;;;13.07;6.90;;;17.30;97.70;;;;;;5013417;28;20030;-51
2021/10/20 11:55:28;;;;;;;10.05;6.15;;;17.30;97.50;;;;;;5030566;28;20086;-57
2021/10/20 11:58:22;;;;;;;9.95;6.60;;;17.40;97.50;;;;;;5014015;22;20057;-53
2021/10/20 12:00:56;;;;;;;11.18;6.20;;;17.40;97.40;;;;;;5006942;28;20437;-55
2021/10/20 12:03:39;;;;;;;9.68;6.40;;;17.40;97.30;;;;;;5011224;28;20498;-53
2021/10/20 12:06:08;;;;;;;11.38;6.65;;;17.40;97.30;;;;;;5010559;28;20084;-54
2021/10/20 12:08:35;;;;;;;14.13;5.95;;;17.40;97.20;;;;;;5011605;28;20038;-52
2021/10/20 12:11:02;;;;;;;10.85;6.03;;;17.40;97.20;;;;;;5010459;28;20482;-55
2021/10/20 12:13:28;;;;;;;10.57;6.63;;;17.40;97.10;;;;;;5012210;28;20525;-54
2021/10/20 12:15:56;;;;;;;13.07;6.03;;;17.50;97.10;;;;;;5013272;28;20041;-55
2021/10/20 12:18:24;;;;;;;14.25;6.03;;;17.50;96.80;;;;;;5007760;28;20080;-56
2021/10/20 12:20:54;;;;;;;11.98;6.13;;;17.50;96.70;;;;;;5004347;28;20495;-55
2021/10/20 12:23:19;;;;;;;10.93;6.13;;;17.50;96.90;;;;;;5013110;28;20044;-56
2021/10/20 12:25:46;;;;;;;12.88;5.85;;;17.50;96.80;;;;;;5007509;28;20121;-55
2021/10/20 12:28:13;;;;;;;10.95;6.72;;;17.50;96.80;;;;;;5005735;28;20048;-56
2021/10/20 12:30:39;;;;;;;10.13;5.80;;;17.50;96.90;;;;;;5004506;28;20062;-55
2021/10/20 12:33:09;;;;;;;8.52;6.15;;;17.50;96.80;;;;;;5010363;28;20034;-54
2021/10/20 12:35:34;;;;;;;9.02;5.85;;;17.50;96.80;;;;;;5001395;28;20487;-55
2021/10/20 12:38:04;;;;;;;12.30;5.85;;;17.50;96.80;;;;;;5006612;28;20030;-56
2021/10/20 12:40:30;;;;;;;15.75;5.82;;;17.50;96.80;;;;;;5008917;28;20038;-55